sensor_id;sensor_type;location;lat;lon;timestamp;pressure;altitude;pressure_sealevel;temperature;humidity
43486;BME280;30447;48.742;8.972;2024-01-16T00:00:22;96172.44;;;-1.04;80.53
43486;BME280;30447;48.742;8.972;2024-01-16T00:02:49;96177.16;;;-0.89;79.43
43486;BME280;30447;48.742;8.972;2024-01-16T00:05:15;96181.75;;;-1.04;80.12
43486;BME280;30447;48.742;8.972;2024-01-16T00:07:42;96172.38;;;-1.05;81.13
43486;BME280;30447;48.742;8.972;2024-01-16T00:10:09;96166.78;;;-1.21;80.72
43486;BME280;30447;48.742;8.972;2024-01-16T00:12:35;96164.91;;;-1.01;79.99
43486;BME280;30447;48.742;8.972;2024-01-16T00:15:02;96166.13;;;-0.89;79.61
43486;BME280;30447;48.742;8.972;2024-01-16T00:17:29;96164.28;;;-0.94;79.27
43486;BME280;30447;48.742;8.972;2024-01-16T00:19:55;96170.19;;;-1.21;79.96
43486;BME280;30447;48.742;8.972;2024-01-16T00:22:27;96163.22;;;-1.00;79.92
43486;BME280;30447;48.742;8.972;2024-01-16T00:24:54;96163.12;;;-1.03;79.95
43486;BME280;30447;48.742;8.972;2024-01-16T00:27:20;96164.81;;;-1.04;80.49
43486;BME280;30447;48.742;8.972;2024-01-16T00:29:47;96182.50;;;-1.07;80.46
43486;BME280;30447;48.742;8.972;2024-01-16T00:32:14;96166.91;;;-0.92;80.34
43486;BME280;30447;48.742;8.972;2024-01-16T00:34:42;96170.50;;;-1.11;80.12
43486;BME280;30447;48.742;8.972;2024-01-16T00:37:09;96175.03;;;-1.02;80.06
43486;BME280;30447;48.742;8.972;2024-01-16T00:39:36;96164.19;;;-1.23;81.04
43486;BME280;30447;48.742;8.972;2024-01-16T00:42:03;96169.72;;;-1.10;79.89
43486;BME280;30447;48.742;8.972;2024-01-16T00:44:29;96168.50;;;-0.94;79.38
43486;BME280;30447;48.742;8.972;2024-01-16T00:46:56;96165.47;;;-1.10;79.68
43486;BME280;30447;48.742;8.972;2024-01-16T00:49:23;96168.25;;;-1.02;80.06
43486;BME280;30447;48.742;8.972;2024-01-16T00:51:49;96156.16;;;-1.09;79.43
43486;BME280;30447;48.742;8.972;2024-01-16T00:54:16;96160.06;;;-0.93;80.08
43486;BME280;30447;48.742;8.972;2024-01-16T00:56:42;96162.31;;;-1.02;80.47
43486;BME280;30447;48.742;8.972;2024-01-16T00:59:09;96147.91;;;-1.02;80.52
43486;BME280;30447;48.742;8.972;2024-01-16T01:01:38;96147.88;;;-1.29;79.96
43486;BME280;30447;48.742;8.972;2024-01-16T01:04:05;96150.25;;;-1.08;80.23
43486;BME280;30447;48.742;8.972;2024-01-16T01:06:31;96160.63;;;-1.02;79.80
43486;BME280;30447;48.742;8.972;2024-01-16T01:08:58;96161.84;;;-0.90;78.96
43486;BME280;30447;48.742;8.972;2024-01-16T01:11:25;96160.00;;;-1.21;81.16
43486;BME280;30447;48.742;8.972;2024-01-16T01:13:52;96162.34;;;-1.01;79.74
43486;BME280;30447;48.742;8.972;2024-01-16T01:16:19;96162.31;;;-1.28;80.67
43486;BME280;30447;48.742;8.972;2024-01-16T01:18:46;96160.00;;;-1.21;80.70
43486;BME280;30447;48.742;8.972;2024-01-16T01:21:12;96167.16;;;-0.84;79.63
43486;BME280;30447;48.742;8.972;2024-01-16T01:23:39;96168.47;;;-1.22;80.02
43486;BME280;30447;48.742;8.972;2024-01-16T01:26:06;96180.03;;;-1.05;79.80
43486;BME280;30447;48.742;8.972;2024-01-16T01:28:33;96169.22;;;-1.24;80.62
43486;BME280;30447;48.742;8.972;2024-01-16T01:30:59;96171.56;;;-1.04;79.45
43486;BME280;30447;48.742;8.972;2024-01-16T01:33:26;96173.72;;;-1.17;80.44
43486;BME280;30447;48.742;8.972;2024-01-16T01:35:52;96184.00;;;-1.38;80.50
43486;BME280;30447;48.742;8.972;2024-01-16T01:38:19;96185.06;;;-1.57;81.42
43486;BME280;30447;48.742;8.972;2024-01-16T01:40:46;96173.78;;;-1.40;80.64
43486;BME280;30447;48.742;8.972;2024-01-16T01:43:23;96179.25;;;-1.03;79.76
43486;BME280;30447;48.742;8.972;2024-01-16T01:46:11;96182.63;;;-1.30;80.69
43486;BME280;30447;48.742;8.972;2024-01-16T01:48:47;96192.28;;;-1.20;80.03
43486;BME280;30447;48.742;8.972;2024-01-16T01:51:17;96200.44;;;-1.28;80.81
43486;BME280;30447;48.742;8.972;2024-01-16T01:53:48;96197.44;;;-1.16;79.96
43486;BME280;30447;48.742;8.972;2024-01-16T01:56:18;96199.53;;;-1.04;79.53
43486;BME280;30447;48.742;8.972;2024-01-16T01:58:49;96197.06;;;-1.29;80.72
43486;BME280;30447;48.742;8.972;2024-01-16T02:01:22;96201.50;;;-0.97;79.45
43486;BME280;30447;48.742;8.972;2024-01-16T02:03:51;96201.19;;;-1.07;79.77
43486;BME280;30447;48.742;8.972;2024-01-16T02:06:18;96199.09;;;-1.18;80.23
43486;BME280;30447;48.742;8.972;2024-01-16T02:08:45;96194.31;;;-1.09;80.19
43486;BME280;30447;48.742;8.972;2024-01-16T02:11:12;96199.84;;;-1.21;79.94
43486;BME280;30447;48.742;8.972;2024-01-16T02:13:38;96191.47;;;-1.18;80.87
43486;BME280;30447;48.742;8.972;2024-01-16T02:16:05;96198.97;;;-1.22;80.81
43486;BME280;30447;48.742;8.972;2024-01-16T02:18:32;96202.12;;;-1.29;80.27
43486;BME280;30447;48.742;8.972;2024-01-16T02:21:00;96203.97;;;-1.25;80.20
43486;BME280;30447;48.742;8.972;2024-01-16T02:23:31;96200.75;;;-1.19;79.89
43486;BME280;30447;48.742;8.972;2024-01-16T02:25:59;96200.34;;;-1.31;79.62
43486;BME280;30447;48.742;8.972;2024-01-16T02:28:27;96193.44;;;-1.36;80.66
43486;BME280;30447;48.742;8.972;2024-01-16T02:30:54;96200.06;;;-1.15;80.51
43486;BME280;30447;48.742;8.972;2024-01-16T02:33:20;96194.31;;;-1.34;80.34
43486;BME280;30447;48.742;8.972;2024-01-16T02:35:47;96190.81;;;-1.37;79.76
43486;BME280;30447;48.742;8.972;2024-01-16T02:38:13;96195.69;;;-1.43;79.47
43486;BME280;30447;48.742;8.972;2024-01-16T02:40:40;96191.75;;;-1.60;80.13
43486;BME280;30447;48.742;8.972;2024-01-16T02:43:07;96191.13;;;-1.54;78.95
43486;BME280;30447;48.742;8.972;2024-01-16T02:45:34;96196.41;;;-1.48;79.43
43486;BME280;30447;48.742;8.972;2024-01-16T02:48:01;96217.56;;;-1.73;79.64
43486;BME280;30447;48.742;8.972;2024-01-16T02:50:29;96212.81;;;-1.87;80.00
43486;BME280;30447;48.742;8.972;2024-01-16T02:52:56;96213.44;;;-1.92;79.00
43486;BME280;30447;48.742;8.972;2024-01-16T02:55:22;96216.41;;;-1.81;79.79
43486;BME280;30447;48.742;8.972;2024-01-16T02:57:49;96212.50;;;-1.71;80.50
43486;BME280;30447;48.742;8.972;2024-01-16T03:00:16;96213.66;;;-1.86;80.13
43486;BME280;30447;48.742;8.972;2024-01-16T03:02:44;96207.69;;;-1.88;79.05
43486;BME280;30447;48.742;8.972;2024-01-16T03:05:11;96204.09;;;-1.93;79.36
43486;BME280;30447;48.742;8.972;2024-01-16T03:07:37;96203.06;;;-2.21;78.71
43486;BME280;30447;48.742;8.972;2024-01-16T03:10:04;96211.41;;;-2.47;79.65
43486;BME280;30447;48.742;8.972;2024-01-16T03:12:30;96212.97;;;-2.50;79.49
43486;BME280;30447;48.742;8.972;2024-01-16T03:14:57;96215.16;;;-2.60;80.15
43486;BME280;30447;48.742;8.972;2024-01-16T03:17:24;96218.66;;;-2.56;80.62
43486;BME280;30447;48.742;8.972;2024-01-16T03:19:50;96219.84;;;-2.69;80.26
43486;BME280;30447;48.742;8.972;2024-01-16T03:22:17;96223.38;;;-2.66;80.26
43486;BME280;30447;48.742;8.972;2024-01-16T03:24:44;96220.22;;;-2.81;80.42
43486;BME280;30447;48.742;8.972;2024-01-16T03:27:12;96217.97;;;-2.95;80.17
43486;BME280;30447;48.742;8.972;2024-01-16T03:29:39;96214.84;;;-2.89;79.96
43486;BME280;30447;48.742;8.972;2024-01-16T03:32:06;96217.22;;;-2.94;78.94
43486;BME280;30447;48.742;8.972;2024-01-16T03:34:32;96221.81;;;-3.04;79.99
43486;BME280;30447;48.742;8.972;2024-01-16T03:36:59;96222.78;;;-3.22;80.84
43486;BME280;30447;48.742;8.972;2024-01-16T03:39:26;96225.22;;;-3.45;80.02
43486;BME280;30447;48.742;8.972;2024-01-16T03:41:52;96220.87;;;-3.48;80.59
43486;BME280;30447;48.742;8.972;2024-01-16T03:44:19;96226.22;;;-3.61;80.68
43486;BME280;30447;48.742;8.972;2024-01-16T03:46:45;96230.41;;;-3.62;80.24
43486;BME280;30447;48.742;8.972;2024-01-16T03:49:12;96216.81;;;-3.83;79.45
43486;BME280;30447;48.742;8.972;2024-01-16T03:51:38;96223.94;;;-4.13;80.04
43486;BME280;30447;48.742;8.972;2024-01-16T03:54:09;96225.12;;;-3.86;79.99
43486;BME280;30447;48.742;8.972;2024-01-16T03:56:35;96216.12;;;-3.99;80.31
43486;BME280;30447;48.742;8.972;2024-01-16T03:59:02;96213.56;;;-4.19;80.54
43486;BME280;30447;48.742;8.972;2024-01-16T04:01:31;96209.28;;;-4.20;80.23
43486;BME280;30447;48.742;8.972;2024-01-16T04:03:58;96211.19;;;-4.34;80.45
43486;BME280;30447;48.742;8.972;2024-01-16T04:06:25;96212.41;;;-4.26;80.94
43486;BME280;30447;48.742;8.972;2024-01-16T04:08:52;96213.00;;;-4.49;81.70
43486;BME280;30447;48.742;8.972;2024-01-16T04:11:19;96211.78;;;-4.58;83.04
43486;BME280;30447;48.742;8.972;2024-01-16T04:13:45;96219.13;;;-4.62;82.85
43486;BME280;30447;48.742;8.972;2024-01-16T04:16:12;96221.47;;;-4.67;83.71
43486;BME280;30447;48.742;8.972;2024-01-16T04:18:41;96218.47;;;-4.40;82.20
43486;BME280;30447;48.742;8.972;2024-01-16T04:21:09;96216.59;;;-4.81;82.48
43486;BME280;30447;48.742;8.972;2024-01-16T04:23:36;96216.03;;;-4.93;83.03
43486;BME280;30447;48.742;8.972;2024-01-16T04:26:03;96213.22;;;-4.81;79.99
43486;BME280;30447;48.742;8.972;2024-01-16T04:28:30;96216.03;;;-4.93;80.30
43486;BME280;30447;48.742;8.972;2024-01-16T04:30:57;96213.22;;;-4.99;80.58
43486;BME280;30447;48.742;8.972;2024-01-16T04:33:23;96213.87;;;-4.85;81.12
43486;BME280;30447;48.742;8.972;2024-01-16T04:35:50;96197.31;;;-4.97;80.97
43486;BME280;30447;48.742;8.972;2024-01-16T04:38:16;96206.56;;;-4.97;81.68
43486;BME280;30447;48.742;8.972;2024-01-16T04:40:43;96201.66;;;-4.94;80.63
43486;BME280;30447;48.742;8.972;2024-01-16T04:43:10;96194.38;;;-5.23;80.91
43486;BME280;30447;48.742;8.972;2024-01-16T04:45:36;96202.53;;;-4.75;79.59
43486;BME280;30447;48.742;8.972;2024-01-16T04:48:03;96199.44;;;-5.05;80.54
43486;BME280;30447;48.742;8.972;2024-01-16T04:50:30;96192.59;;;-5.07;81.32
43486;BME280;30447;48.742;8.972;2024-01-16T04:53:00;96190.94;;;-5.07;81.04
43486;BME280;30447;48.742;8.972;2024-01-16T04:55:30;96185.56;;;-5.31;81.92
43486;BME280;30447;48.742;8.972;2024-01-16T04:57:57;96180.72;;;-5.26;80.99
43486;BME280;30447;48.742;8.972;2024-01-16T05:00:24;96180.38;;;-5.51;80.33
43486;BME280;30447;48.742;8.972;2024-01-16T05:02:50;96198.47;;;-5.76;80.25
43486;BME280;30447;48.742;8.972;2024-01-16T05:05:17;96202.97;;;-6.04;81.24
43486;BME280;30447;48.742;8.972;2024-01-16T05:07:44;96201.22;;;-5.88;80.98
43486;BME280;30447;48.742;8.972;2024-01-16T05:10:12;96200.31;;;-6.07;80.20
43486;BME280;30447;48.742;8.972;2024-01-16T05:12:40;96205.22;;;-6.25;77.68
43486;BME280;30447;48.742;8.972;2024-01-16T05:15:07;96201.75;;;-6.44;77.28
43486;BME280;30447;48.742;8.972;2024-01-16T05:17:35;96188.72;;;-6.52;77.25
43486;BME280;30447;48.742;8.972;2024-01-16T05:20:02;96193.31;;;-6.44;78.14
43486;BME280;30447;48.742;8.972;2024-01-16T05:22:31;96189.34;;;-6.24;79.65
43486;BME280;30447;48.742;8.972;2024-01-16T05:24:59;96184.88;;;-5.95;81.24
43486;BME280;30447;48.742;8.972;2024-01-16T05:27:27;96190.03;;;-6.58;81.90
43486;BME280;30447;48.742;8.972;2024-01-16T05:29:53;96184.44;;;-6.21;82.96
43486;BME280;30447;48.742;8.972;2024-01-16T05:32:21;96177.53;;;-6.08;82.49
43486;BME280;30447;48.742;8.972;2024-01-16T05:34:47;96184.13;;;-6.27;81.76
43486;BME280;30447;48.742;8.972;2024-01-16T05:37:14;96174.81;;;-6.28;81.56
43486;BME280;30447;48.742;8.972;2024-01-16T05:39:41;96176.88;;;-6.21;83.19
43486;BME280;30447;48.742;8.972;2024-01-16T05:42:07;96177.88;;;-6.01;84.09
43486;BME280;30447;48.742;8.972;2024-01-16T05:44:34;96171.66;;;-5.91;83.85
43486;BME280;30447;48.742;8.972;2024-01-16T05:47:00;96181.81;;;-6.22;84.50
43486;BME280;30447;48.742;8.972;2024-01-16T05:49:28;96167.09;;;-5.98;82.17
43486;BME280;30447;48.742;8.972;2024-01-16T05:51:55;96166.47;;;-5.94;80.61
43486;BME280;30447;48.742;8.972;2024-01-16T05:54:21;96162.44;;;-5.90;78.34
43486;BME280;30447;48.742;8.972;2024-01-16T05:56:48;96163.94;;;-6.11;79.25
43486;BME280;30447;48.742;8.972;2024-01-16T05:59:16;96168.03;;;-6.29;78.42
43486;BME280;30447;48.742;8.972;2024-01-16T06:01:42;96166.69;;;-6.39;79.20
43486;BME280;30447;48.742;8.972;2024-01-16T06:04:09;96169.78;;;-6.28;80.55
43486;BME280;30447;48.742;8.972;2024-01-16T06:06:35;96171.28;;;-6.32;80.76
43486;BME280;30447;48.742;8.972;2024-01-16T06:09:02;96173.81;;;-6.15;81.59
43486;BME280;30447;48.742;8.972;2024-01-16T06:11:32;96171.72;;;-5.89;82.42
43486;BME280;30447;48.742;8.972;2024-01-16T06:13:59;96168.44;;;-6.05;81.37
43486;BME280;30447;48.742;8.972;2024-01-16T06:16:26;96177.22;;;-6.15;81.66
43486;BME280;30447;48.742;8.972;2024-01-16T06:18:52;96172.84;;;-6.01;81.73
43486;BME280;30447;48.742;8.972;2024-01-16T06:21:19;96163.81;;;-5.62;81.42
43486;BME280;30447;48.742;8.972;2024-01-16T06:23:45;96166.75;;;-5.71;80.72
43486;BME280;30447;48.742;8.972;2024-01-16T06:26:12;96160.59;;;-5.76;81.25
43486;BME280;30447;48.742;8.972;2024-01-16T06:28:39;96160.19;;;-5.51;81.60
43486;BME280;30447;48.742;8.972;2024-01-16T06:31:09;96157.19;;;-5.60;80.54
43486;BME280;30447;48.742;8.972;2024-01-16T06:33:35;96162.00;;;-5.65;81.70
43486;BME280;30447;48.742;8.972;2024-01-16T06:36:03;96159.94;;;-5.55;82.69
43486;BME280;30447;48.742;8.972;2024-01-16T06:38:32;96169.03;;;-5.59;82.51
43486;BME280;30447;48.742;8.972;2024-01-16T06:40:59;96166.44;;;-5.26;82.34
43486;BME280;30447;48.742;8.972;2024-01-16T06:43:26;96180.47;;;-5.49;83.28
43486;BME280;30447;48.742;8.972;2024-01-16T06:45:53;96178.12;;;-5.28;83.13
43486;BME280;30447;48.742;8.972;2024-01-16T06:48:20;96169.97;;;-5.22;83.15
43486;BME280;30447;48.742;8.972;2024-01-16T06:50:47;96181.19;;;-5.17;82.66
43486;BME280;30447;48.742;8.972;2024-01-16T06:53:13;96180.53;;;-5.13;82.92
43486;BME280;30447;48.742;8.972;2024-01-16T06:55:40;96193.56;;;-5.05;83.39
43486;BME280;30447;48.742;8.972;2024-01-16T06:58:07;96179.03;;;-5.09;83.19
43486;BME280;30447;48.742;8.972;2024-01-16T07:00:35;96188.75;;;-5.17;83.52
43486;BME280;30447;48.742;8.972;2024-01-16T07:03:02;96175.34;;;-4.98;83.75
43486;BME280;30447;48.742;8.972;2024-01-16T07:05:29;96169.53;;;-4.97;83.38
43486;BME280;30447;48.742;8.972;2024-01-16T07:07:55;96169.19;;;-5.03;83.48
43486;BME280;30447;48.742;8.972;2024-01-16T07:10:22;96171.09;;;-4.99;82.78
43486;BME280;30447;48.742;8.972;2024-01-16T07:12:50;96176.06;;;-4.82;82.11
43486;BME280;30447;48.742;8.972;2024-01-16T07:15:18;96178.59;;;-5.00;81.86
43486;BME280;30447;48.742;8.972;2024-01-16T07:17:45;96177.38;;;-4.91;81.69
43486;BME280;30447;48.742;8.972;2024-01-16T07:20:12;96168.44;;;-5.02;81.84
43486;BME280;30447;48.742;8.972;2024-01-16T07:22:38;96171.00;;;-5.00;81.27
43486;BME280;30447;48.742;8.972;2024-01-16T07:25:08;96165.66;;;-5.07;81.77
43486;BME280;30447;48.742;8.972;2024-01-16T07:27:35;96170.59;;;-4.92;81.70
43486;BME280;30447;48.742;8.972;2024-01-16T07:30:04;96173.44;;;-5.20;82.37
43486;BME280;30447;48.742;8.972;2024-01-16T07:32:32;96175.84;;;-5.05;81.90
43486;BME280;30447;48.742;8.972;2024-01-16T07:34:59;96170.44;;;-5.13;83.11
43486;BME280;30447;48.742;8.972;2024-01-16T07:37:26;96170.16;;;-4.83;82.08
43486;BME280;30447;48.742;8.972;2024-01-16T07:39:52;96165.81;;;-4.67;81.89
43486;BME280;30447;48.742;8.972;2024-01-16T07:42:19;96171.81;;;-4.65;80.94
43486;BME280;30447;48.742;8.972;2024-01-16T07:44:46;96167.72;;;-4.63;80.80
43486;BME280;30447;48.742;8.972;2024-01-16T07:47:12;96168.94;;;-4.73;80.19
43486;BME280;30447;48.742;8.972;2024-01-16T07:49:39;96164.31;;;-4.63;79.33
43486;BME280;30447;48.742;8.972;2024-01-16T07:52:05;96166.75;;;-4.65;79.08
43486;BME280;30447;48.742;8.972;2024-01-16T07:54:32;96165.03;;;-4.66;79.70
43486;BME280;30447;48.742;8.972;2024-01-16T07:56:59;96170.16;;;-4.83;80.07
43486;BME280;30447;48.742;8.972;2024-01-16T07:59:26;96174.63;;;-4.41;80.08
43486;BME280;30447;48.742;8.972;2024-01-16T08:01:52;96174.66;;;-4.21;79.53
43486;BME280;30447;48.742;8.972;2024-01-16T08:04:19;96171.50;;;-4.35;79.37
43486;BME280;30447;48.742;8.972;2024-01-16T08:06:47;96172.13;;;-4.21;78.60
43486;BME280;30447;48.742;8.972;2024-01-16T08:09:14;96165.75;;;-4.13;78.43
43486;BME280;30447;48.742;8.972;2024-01-16T08:11:40;96167.41;;;-4.13;77.84
43486;BME280;30447;48.742;8.972;2024-01-16T08:14:07;96167.16;;;-4.00;77.06
43486;BME280;30447;48.742;8.972;2024-01-16T08:16:34;96169.00;;;-3.95;77.82
43486;BME280;30447;48.742;8.972;2024-01-16T08:19:01;96168.91;;;-3.99;77.83
43486;BME280;30447;48.742;8.972;2024-01-16T08:21:29;96162.88;;;-4.01;77.42
43486;BME280;30447;48.742;8.972;2024-01-16T08:23:56;96165.75;;;-3.73;76.94
43486;BME280;30447;48.742;8.972;2024-01-16T08:26:22;96164.75;;;-3.77;77.19
43486;BME280;30447;48.742;8.972;2024-01-16T08:28:49;96166.87;;;-3.66;77.16
43486;BME280;30447;48.742;8.972;2024-01-16T08:31:17;96171.62;;;-3.54;76.94
43486;BME280;30447;48.742;8.972;2024-01-16T08:33:47;96173.66;;;-3.46;76.40
43486;BME280;30447;48.742;8.972;2024-01-16T08:36:14;96173.28;;;-3.55;76.92
43486;BME280;30447;48.742;8.972;2024-01-16T08:38:41;96186.47;;;-3.42;76.99
43486;BME280;30447;48.742;8.972;2024-01-16T08:41:08;96185.91;;;-3.35;76.35
43486;BME280;30447;48.742;8.972;2024-01-16T08:43:35;96192.00;;;-3.10;75.73
43486;BME280;30447;48.742;8.972;2024-01-16T08:46:01;96186.88;;;-2.90;74.03
43486;BME280;30447;48.742;8.972;2024-01-16T08:48:29;96192.25;;;-3.04;75.03
43486;BME280;30447;48.742;8.972;2024-01-16T08:50:56;96193.91;;;-3.26;75.77
43486;BME280;30447;48.742;8.972;2024-01-16T08:53:23;96193.38;;;-2.97;75.67
43486;BME280;30447;48.742;8.972;2024-01-16T08:55:50;96186.56;;;-2.77;75.49
43486;BME280;30447;48.742;8.972;2024-01-16T08:58:16;96184.09;;;-2.75;75.83
43486;BME280;30447;48.742;8.972;2024-01-16T09:00:43;96186.22;;;-2.86;75.81
43486;BME280;30447;48.742;8.972;2024-01-16T09:03:11;96184.72;;;-2.81;75.71
43486;BME280;30447;48.742;8.972;2024-01-16T09:05:38;96189.22;;;-2.74;75.27
43486;BME280;30447;48.742;8.972;2024-01-16T09:08:05;96184.88;;;-2.76;74.94
43486;BME280;30447;48.742;8.972;2024-01-16T09:10:31;96182.94;;;-2.84;75.62
43486;BME280;30447;48.742;8.972;2024-01-16T09:12:58;96181.75;;;-2.71;75.38
43486;BME280;30447;48.742;8.972;2024-01-16T09:15:25;96192.09;;;-2.66;75.48
43486;BME280;30447;48.742;8.972;2024-01-16T09:17:52;96189.56;;;-2.43;75.09
43486;BME280;30447;48.742;8.972;2024-01-16T09:20:18;96194.88;;;-2.37;74.48
43486;BME280;30447;48.742;8.972;2024-01-16T09:22:45;96192.13;;;-2.20;74.28
43486;BME280;30447;48.742;8.972;2024-01-16T09:25:12;96197.66;;;-2.08;74.06
43486;BME280;30447;48.742;8.972;2024-01-16T09:27:38;96191.34;;;-1.95;73.40
43486;BME280;30447;48.742;8.972;2024-01-16T09:30:05;96185.91;;;-2.04;74.06
43486;BME280;30447;48.742;8.972;2024-01-16T09:32:33;96188.00;;;-1.94;73.52
43486;BME280;30447;48.742;8.972;2024-01-16T09:35:02;96190.03;;;-1.85;72.52
43486;BME280;30447;48.742;8.972;2024-01-16T09:37:30;96190.87;;;-1.84;72.85
43486;BME280;30447;48.742;8.972;2024-01-16T09:39:57;96186.06;;;-1.77;72.36
43486;BME280;30447;48.742;8.972;2024-01-16T09:42:26;96182.06;;;-1.70;72.14
43486;BME280;30447;48.742;8.972;2024-01-16T09:44:55;96184.81;;;-1.64;71.75
43486;BME280;30447;48.742;8.972;2024-01-16T09:47:26;96187.34;;;-1.65;73.00
43486;BME280;30447;48.742;8.972;2024-01-16T09:49:55;96178.78;;;-1.43;72.73
43486;BME280;30447;48.742;8.972;2024-01-16T09:52:25;96176.34;;;-1.40;72.14
43486;BME280;30447;48.742;8.972;2024-01-16T09:54:52;96176.72;;;-1.29;72.67
43486;BME280;30447;48.742;8.972;2024-01-16T09:57:19;96171.69;;;-1.27;72.60
43486;BME280;30447;48.742;8.972;2024-01-16T09:59:49;96169.59;;;-1.13;72.99
43486;BME280;30447;48.742;8.972;2024-01-16T10:02:18;96162.22;;;-1.05;71.59
43486;BME280;30447;48.742;8.972;2024-01-16T10:04:47;96164.19;;;-0.97;71.23
43486;BME280;30447;48.742;8.972;2024-01-16T10:07:15;96161.66;;;-0.69;70.01
43486;BME280;30447;48.742;8.972;2024-01-16T10:09:43;96165.03;;;-0.70;70.45
43486;BME280;30447;48.742;8.972;2024-01-16T10:12:10;96166.56;;;-0.48;70.33
43486;BME280;30447;48.742;8.972;2024-01-16T10:14:38;96165.50;;;-0.55;69.09
43486;BME280;30447;48.742;8.972;2024-01-16T10:17:06;96163.12;;;-0.50;69.71
43486;BME280;30447;48.742;8.972;2024-01-16T10:19:51;96154.47;;;-0.26;69.18
43486;BME280;30447;48.742;8.972;2024-01-16T10:22:25;96137.75;;;-0.18;69.51
43486;BME280;30447;48.742;8.972;2024-01-16T10:25:11;96133.31;;;-0.25;70.57
43486;BME280;30447;48.742;8.972;2024-01-16T10:27:43;96133.75;;;-0.08;70.09
43486;BME280;30447;48.742;8.972;2024-01-16T10:30:09;96131.53;;;0.03;70.53
43486;BME280;30447;48.742;8.972;2024-01-16T10:32:38;96135.38;;;-0.11;70.10
43486;BME280;30447;48.742;8.972;2024-01-16T10:35:11;96126.38;;;-0.29;68.94
43486;BME280;30447;48.742;8.972;2024-01-16T10:37:47;96126.88;;;-0.12;68.62
43486;BME280;30447;48.742;8.972;2024-01-16T10:42:45;96129.19;;;-0.49;70.84
43486;BME280;30447;48.742;8.972;2024-01-16T10:45:18;96127.47;;;-0.50;71.02
43486;BME280;30447;48.742;8.972;2024-01-16T10:47:46;96121.78;;;-0.41;70.12
43486;BME280;30447;48.742;8.972;2024-01-16T10:50:13;96122.84;;;-0.34;69.50
43486;BME280;30447;48.742;8.972;2024-01-16T10:52:47;96122.50;;;-0.45;70.18
43486;BME280;30447;48.742;8.972;2024-01-16T10:55:22;96127.63;;;-0.73;69.95
43486;BME280;30447;48.742;8.972;2024-01-16T10:57:50;96131.06;;;-0.71;70.19
43486;BME280;30447;48.742;8.972;2024-01-16T11:00:21;96131.69;;;-0.50;71.19
43486;BME280;30447;48.742;8.972;2024-01-16T11:02:58;96122.25;;;-0.25;70.43
43486;BME280;30447;48.742;8.972;2024-01-16T11:05:33;96119.88;;;-0.19;69.69
43486;BME280;30447;48.742;8.972;2024-01-16T11:08:00;96117.78;;;-0.33;69.59
43486;BME280;30447;48.742;8.972;2024-01-16T11:10:33;96110.97;;;-0.34;69.68
43486;BME280;30447;48.742;8.972;2024-01-16T11:13:02;96102.66;;;-0.28;70.84
43486;BME280;30447;48.742;8.972;2024-01-16T11:15:31;96109.25;;;-0.35;70.21
43486;BME280;30447;48.742;8.972;2024-01-16T11:17:59;96105.50;;;-0.17;69.82
43486;BME280;30447;48.742;8.972;2024-01-16T11:20:29;96097.09;;;-0.15;69.98
43486;BME280;30447;48.742;8.972;2024-01-16T11:22:58;96087.69;;;-0.17;69.19
43486;BME280;30447;48.742;8.972;2024-01-16T11:25:33;96080.06;;;-0.16;69.37
43486;BME280;30447;48.742;8.972;2024-01-16T11:28:13;96082.28;;;-0.28;69.92
43486;BME280;30447;48.742;8.972;2024-01-16T11:30:41;96081.38;;;-0.59;70.38
43486;BME280;30447;48.742;8.972;2024-01-16T11:36:00;96074.13;;;-0.16;69.42
43486;BME280;30447;48.742;8.972;2024-01-16T11:38:29;96070.84;;;-0.12;68.79
43486;BME280;30447;48.742;8.972;2024-01-16T11:40:58;96073.47;;;-0.09;68.95
43486;BME280;30447;48.742;8.972;2024-01-16T11:43:36;96067.06;;;0.06;68.59
43486;BME280;30447;48.742;8.972;2024-01-16T11:46:07;96052.13;;;0.18;68.51
43486;BME280;30447;48.742;8.972;2024-01-16T11:48:35;96053.00;;;0.20;68.80
43486;BME280;30447;48.742;8.972;2024-01-16T11:51:22;96049.88;;;0.31;67.92
43486;BME280;30447;48.742;8.972;2024-01-16T11:53:50;96047.91;;;0.20;68.54
43486;BME280;30447;48.742;8.972;2024-01-16T12:01:57;96032.16;;;0.03;70.37
43486;BME280;30447;48.742;8.972;2024-01-16T12:04:25;96023.50;;;-0.04;70.07
43486;BME280;30447;48.742;8.972;2024-01-16T12:07:00;96017.41;;;-0.09;70.08
43486;BME280;30447;48.742;8.972;2024-01-16T12:09:28;96016.25;;;0.10;70.59
43486;BME280;30447;48.742;8.972;2024-01-16T12:12:02;96013.75;;;0.13;69.98
43486;BME280;30447;48.742;8.972;2024-01-16T12:14:29;96007.97;;;0.19;69.80
43486;BME280;30447;48.742;8.972;2024-01-16T12:17:12;96002.81;;;0.18;69.46
43486;BME280;30447;48.742;8.972;2024-01-16T12:19:39;96000.78;;;0.38;68.63
43486;BME280;30447;48.742;8.972;2024-01-16T12:22:09;96000.81;;;0.06;67.92
43486;BME280;30447;48.742;8.972;2024-01-16T12:24:37;95992.03;;;0.28;67.20
43486;BME280;30447;48.742;8.972;2024-01-16T12:27:04;95993.13;;;0.38;67.05
43486;BME280;30447;48.742;8.972;2024-01-16T12:29:32;95992.72;;;0.58;65.90
43486;BME280;30447;48.742;8.972;2024-01-16T12:32:08;95978.59;;;0.34;65.17
43486;BME280;30447;48.742;8.972;2024-01-16T12:34:44;95971.41;;;0.54;64.13
43486;BME280;30447;48.742;8.972;2024-01-16T12:37:12;95980.25;;;0.69;64.06
43486;BME280;30447;48.742;8.972;2024-01-16T12:39:40;95983.38;;;0.57;64.24
43486;BME280;30447;48.742;8.972;2024-01-16T12:42:09;95973.91;;;0.51;64.60
43486;BME280;30447;48.742;8.972;2024-01-16T12:44:37;95968.37;;;0.69;65.30
43486;BME280;30447;48.742;8.972;2024-01-16T12:47:04;95962.50;;;0.73;64.27
43486;BME280;30447;48.742;8.972;2024-01-16T12:49:32;95966.22;;;0.88;63.32
43486;BME280;30447;48.742;8.972;2024-01-16T12:52:15;95965.69;;;0.64;63.37
43486;BME280;30447;48.742;8.972;2024-01-16T12:54:45;95973.28;;;0.61;63.80
43486;BME280;30447;48.742;8.972;2024-01-16T12:57:17;95959.72;;;0.62;63.87
43486;BME280;30447;48.742;8.972;2024-01-16T12:59:46;95949.25;;;0.90;64.24
43486;BME280;30447;48.742;8.972;2024-01-16T13:02:21;95955.13;;;0.86;62.71
43486;BME280;30447;48.742;8.972;2024-01-16T13:04:56;95956.28;;;0.60;63.39
43486;BME280;30447;48.742;8.972;2024-01-16T13:07:25;95953.69;;;0.59;63.98
43486;BME280;30447;48.742;8.972;2024-01-16T13:10:12;95933.00;;;0.85;63.57
43486;BME280;30447;48.742;8.972;2024-01-16T13:12:42;95931.50;;;0.95;62.24
43486;BME280;30447;48.742;8.972;2024-01-16T13:15:08;95931.87;;;0.72;62.26
43486;BME280;30447;48.742;8.972;2024-01-16T13:17:37;95930.28;;;0.77;62.82